createdAt,value
2023-01-10T00:01:29.459Z,4.60
2023-01-10T00:03:56.811Z,4.60
2023-01-10T00:06:24.533Z,4.60
2023-01-10T00:08:52.040Z,4.50
2023-01-10T00:11:37.957Z,4.50
2023-01-10T00:14:05.388Z,4.50
2023-01-10T00:16:32.790Z,4.50
2023-01-10T00:19:00.218Z,4.50
2023-01-10T00:21:28.688Z,5.70
2023-01-10T00:23:58.886Z,4.40
2023-01-10T00:26:26.409Z,4.50
2023-01-10T00:28:53.952Z,4.40
2023-01-10T00:31:21.354Z,4.40
2023-01-10T00:33:48.827Z,4.40
2023-01-10T00:36:16.235Z,4.30
2023-01-10T00:38:43.710Z,4.30
2023-01-10T00:41:31.081Z,4.40
2023-01-10T00:43:58.551Z,4.20
2023-01-10T00:46:27.348Z,4.20
2023-01-10T00:48:54.929Z,4.20
2023-01-10T00:51:22.331Z,4.20
2023-01-10T00:53:49.701Z,4.20
2023-01-10T00:56:17.194Z,4.20
2023-01-10T00:58:44.865Z,4.10
2023-01-10T01:01:12.372Z,4.10
2023-01-10T01:03:39.926Z,4.10
2023-01-10T01:06:08.288Z,4.00
2023-01-10T01:08:35.868Z,4.00
2023-01-10T01:11:03.473Z,4.00
2023-01-10T01:13:30.916Z,4.00
2023-01-10T01:15:59.691Z,4.00
2023-01-10T01:18:27.882Z,4.00
2023-01-10T01:21:02.288Z,4.00
2023-01-10T01:23:30.423Z,4.10
2023-01-10T01:25:58.087Z,4.10
2023-01-10T01:28:25.646Z,5.00
2023-01-10T01:30:53.417Z,4.10
2023-01-10T01:33:21.149Z,4.10
2023-01-10T01:35:49.670Z,4.10
2023-01-10T01:38:17.963Z,4.10
2023-01-10T01:40:45.563Z,4.10
2023-01-10T01:43:22.044Z,4.20
2023-01-10T01:45:49.787Z,4.20
2023-01-10T01:48:52.526Z,4.20
2023-01-10T01:51:28.112Z,5.10
2023-01-10T01:54:03.668Z,5.30
2023-01-10T01:56:52.003Z,4.10
2023-01-10T01:59:24.379Z,4.10
2023-01-10T02:01:56.064Z,4.00
2023-01-10T02:05:03.374Z,5.20
2023-01-10T02:07:37.377Z,4.10
2023-01-10T02:10:36.949Z,4.10
2023-01-10T02:13:06.756Z,4.10
2023-01-10T02:15:34.445Z,5.10
2023-01-10T02:18:03.429Z,4.20
2023-01-10T02:20:40.752Z,4.10
2023-01-10T02:23:42.711Z,4.20
2023-01-10T02:26:16.454Z,4.20
2023-01-10T02:29:07.969Z,4.20
2023-01-10T02:32:08.342Z,4.20
2023-01-10T02:34:53.862Z,4.30
2023-01-10T02:37:46.751Z,4.30
2023-01-10T02:40:24.215Z,4.30
2023-01-10T02:43:12.278Z,4.30
2023-01-10T02:45:59.358Z,4.30
2023-01-10T02:48:26.801Z,4.20
2023-01-10T02:50:58.574Z,4.20
2023-01-10T02:53:37.633Z,4.20
2023-01-10T02:56:30.326Z,4.30
2023-01-10T02:59:19.307Z,4.30
2023-01-10T03:01:46.765Z,4.30
2023-01-10T03:04:38.395Z,4.30
2023-01-10T03:07:21.524Z,4.40
2023-01-10T03:10:23.659Z,4.40
2023-01-10T03:13:07.386Z,4.40
2023-01-10T03:15:38.848Z,4.50
2023-01-10T03:18:16.459Z,4.50
2023-01-10T03:20:47.447Z,4.40
2023-01-10T03:23:16.454Z,4.50
2023-01-10T03:25:46.156Z,4.50
2023-01-10T03:28:23.530Z,4.60
2023-01-10T03:31:00.925Z,4.40
2023-01-10T03:33:31.222Z,4.70
2023-01-10T03:36:07.319Z,4.40
2023-01-10T03:38:55.949Z,4.40
2023-01-10T03:41:57.711Z,4.40
2023-01-10T03:44:43.982Z,4.30
2023-01-10T03:47:32.851Z,4.30
2023-01-10T03:50:06.581Z,4.30
2023-01-10T03:52:36.394Z,4.50
2023-01-10T03:55:05.494Z,4.20
2023-01-10T03:57:33.177Z,4.20
2023-01-10T04:00:00.838Z,4.20
2023-01-10T04:02:30.951Z,4.30
2023-01-10T04:04:59.176Z,4.30
2023-01-10T04:07:27.085Z,4.30
2023-01-10T04:09:54.619Z,4.90
2023-01-10T04:12:22.150Z,4.40
2023-01-10T04:14:49.725Z,4.50
2023-01-10T04:17:18.056Z,4.60
2023-01-10T04:19:45.704Z,4.60
2023-01-10T04:22:13.369Z,4.70
2023-01-10T04:24:40.948Z,4.70
2023-01-10T04:27:08.374Z,4.70
2023-01-10T04:29:35.895Z,5.00
2023-01-10T04:32:03.500Z,4.70
2023-01-10T04:34:30.924Z,4.60
2023-01-10T04:36:58.371Z,4.70
2023-01-10T04:39:25.808Z,4.60
2023-01-10T04:41:53.291Z,4.60
2023-01-10T04:44:20.723Z,4.60
2023-01-10T04:46:48.115Z,4.70
2023-01-10T04:49:15.523Z,5.20
2023-01-10T04:51:42.986Z,4.70
2023-01-10T04:54:10.444Z,4.80
2023-01-10T04:56:38.172Z,5.60
2023-01-10T04:59:06.579Z,5.00
2023-01-10T05:01:36.354Z,5.00
2023-01-10T05:04:03.983Z,5.00
2023-01-10T05:06:31.569Z,5.00
2023-01-10T05:08:59.236Z,5.00
2023-01-10T05:11:26.751Z,5.60
2023-01-10T05:13:54.177Z,5.90
2023-01-10T05:16:21.666Z,5.10
2023-01-10T05:18:49.194Z,5.00
2023-01-10T05:21:16.924Z,5.00
2023-01-10T05:23:44.422Z,5.00
2023-01-10T05:26:17.714Z,5.00
2023-01-10T05:28:45.632Z,4.90
2023-01-10T05:31:16.605Z,5.00
2023-01-10T05:33:48.815Z,5.00
2023-01-10T05:36:17.565Z,5.00
2023-01-10T05:38:45.025Z,5.10
2023-01-10T05:41:12.458Z,5.00
2023-01-10T05:43:39.883Z,5.10
2023-01-10T05:46:07.550Z,5.20
2023-01-10T05:48:35.069Z,5.60
2023-01-10T05:51:03.653Z,5.30
2023-01-10T05:53:31.188Z,5.30
2023-01-10T05:56:01.148Z,5.70
2023-01-10T05:58:29.619Z,5.40
2023-01-10T06:00:58.121Z,5.40
2023-01-10T06:03:26.580Z,5.40
2023-01-10T06:05:55.484Z,5.50
2023-01-10T06:08:23.922Z,5.60
2023-01-10T06:10:51.677Z,5.60
2023-01-10T06:13:19.343Z,5.70
2023-01-10T06:15:46.807Z,5.70
2023-01-10T06:18:14.516Z,5.80
2023-01-10T06:20:45.124Z,6.80
2023-01-10T06:23:12.911Z,5.90
2023-01-10T06:25:41.641Z,6.20
2023-01-10T06:28:10.563Z,7.80
2023-01-10T06:30:38.259Z,6.00
2023-01-10T06:33:07.050Z,6.00
2023-01-10T06:35:35.166Z,6.10
2023-01-10T06:38:02.705Z,6.20
2023-01-10T06:40:30.210Z,6.10
2023-01-10T06:42:59.161Z,6.20
2023-01-10T06:45:26.832Z,6.20
2023-01-10T06:47:54.249Z,6.20
2023-01-10T06:50:21.825Z,6.30
2023-01-10T06:53:00.161Z,6.30
2023-01-10T06:55:28.374Z,6.30
2023-01-10T06:57:56.496Z,6.40
2023-01-10T07:00:24.743Z,6.40
2023-01-10T07:02:52.174Z,6.40
2023-01-10T07:05:20.047Z,6.40
2023-01-10T07:07:47.601Z,6.40
2023-01-10T07:10:15.235Z,6.40
2023-01-10T07:12:42.663Z,6.40
2023-01-10T07:15:10.659Z,6.40
2023-01-10T07:17:38.305Z,6.40
2023-01-10T07:20:06.136Z,6.50
2023-01-10T07:22:33.623Z,6.50
2023-01-10T07:25:01.085Z,6.50
2023-01-10T07:27:31.862Z,6.50
2023-01-10T07:29:59.798Z,6.50
2023-01-10T07:32:27.527Z,6.50
2023-01-10T07:34:55.653Z,6.60
2023-01-10T07:37:23.081Z,6.70
2023-01-10T07:39:50.560Z,6.90
2023-01-10T07:42:18.006Z,6.60
2023-01-10T07:44:45.440Z,6.60
2023-01-10T07:47:12.840Z,6.60
2023-01-10T07:49:40.530Z,6.70
2023-01-10T07:52:09.192Z,6.80
2023-01-10T07:54:36.705Z,6.70
2023-01-10T07:57:04.271Z,6.80
2023-01-10T07:59:31.753Z,6.80
2023-01-10T08:01:59.333Z,6.80
2023-01-10T08:04:27.271Z,7.70
2023-01-10T08:06:55.406Z,6.90
2023-01-10T08:09:22.814Z,7.00
2023-01-10T08:11:50.223Z,7.00
2023-01-10T08:14:17.772Z,7.10
2023-01-10T08:16:45.226Z,7.10
2023-01-10T08:19:16.740Z,7.20
2023-01-10T08:21:44.545Z,7.20
2023-01-10T08:24:11.989Z,7.50
2023-01-10T08:26:39.418Z,7.20
2023-01-10T08:29:06.935Z,7.20
2023-01-10T08:31:34.458Z,8.50
2023-01-10T08:34:02.064Z,7.30
2023-01-10T08:36:30.060Z,7.30
2023-01-10T08:38:57.642Z,7.30
2023-01-10T08:41:25.040Z,7.10
2023-01-10T08:43:52.842Z,7.30
2023-01-10T08:46:20.658Z,7.30
2023-01-10T08:48:50.258Z,7.30
2023-01-10T08:51:18.057Z,7.60
2023-01-10T08:53:45.462Z,7.40
2023-01-10T08:56:12.925Z,7.50
2023-01-10T08:58:40.660Z,7.90
2023-01-10T09:01:09.235Z,7.40
2023-01-10T09:03:36.711Z,7.70
2023-01-10T09:06:04.194Z,7.40
2023-01-10T09:08:31.744Z,7.40
2023-01-10T09:11:00.364Z,7.60
2023-01-10T09:13:29.224Z,7.50
2023-01-10T09:15:57.129Z,7.50
2023-01-10T09:18:25.110Z,7.50
2023-01-10T09:20:53.965Z,7.50
2023-01-10T09:23:23.273Z,8.80
2023-01-10T09:25:53.963Z,7.50
2023-01-10T09:28:24.191Z,7.60
2023-01-10T09:30:51.786Z,7.60
2023-01-10T09:33:19.840Z,7.60
2023-01-10T09:35:47.355Z,7.60
2023-01-10T09:38:18.918Z,7.60
2023-01-10T09:41:24.863Z,8.10
2023-01-10T09:44:04.103Z,7.60
2023-01-10T09:46:59.297Z,7.60
2023-01-10T09:49:30.180Z,7.70
2023-01-10T09:51:59.320Z,7.70
2023-01-10T09:54:41.484Z,7.70
2023-01-10T09:57:17.657Z,7.70
2023-01-10T09:59:48.923Z,7.80
2023-01-10T10:02:36.645Z,7.80
2023-01-10T10:05:08.868Z,7.80
2023-01-10T10:07:36.492Z,7.80
2023-01-10T10:10:06.339Z,7.80
2023-01-10T10:12:48.936Z,7.80
2023-01-10T10:15:32.922Z,8.50
2023-01-10T10:18:00.269Z,7.80
2023-01-10T10:21:01.605Z,7.80
2023-01-10T10:23:44.197Z,7.90
2023-01-10T10:26:34.037Z,7.90
2023-01-10T10:29:06.149Z,7.90
2023-01-10T10:31:48.520Z,9.10
2023-01-10T10:34:37.831Z,8.00
2023-01-10T10:37:59.485Z,8.00
2023-01-10T10:40:32.325Z,8.10
2023-01-10T10:43:31.201Z,8.10
2023-01-10T10:46:05.588Z,8.10
2023-01-10T10:48:50.498Z,8.20
2023-01-10T10:51:30.123Z,8.20
2023-01-10T10:53:58.578Z,8.20
2023-01-10T10:56:27.431Z,8.20
2023-01-10T10:58:57.806Z,8.30
2023-01-10T11:01:26.918Z,8.20
2023-01-10T11:04:13.623Z,8.30
2023-01-10T11:06:48.671Z,8.40
2023-01-10T11:09:44.778Z,8.40
2023-01-10T11:12:16.120Z,8.40
2023-01-10T11:14:51.764Z,8.50
2023-01-10T11:17:25.921Z,8.50
2023-01-10T11:20:00.139Z,8.90
2023-01-10T11:22:32.283Z,9.60
2023-01-10T11:25:04.272Z,8.60
2023-01-10T11:27:45.280Z,10.00
2023-01-10T11:30:23.323Z,10.70
2023-01-10T11:32:55.652Z,8.70
2023-01-10T11:35:28.513Z,8.70
2023-01-10T11:38:01.865Z,8.80
2023-01-10T11:40:31.491Z,8.80
2023-01-10T11:43:00.355Z,8.90
2023-01-10T11:45:33.292Z,8.80
2023-01-10T11:48:18.577Z,8.90
2023-01-10T11:50:51.424Z,8.90
2023-01-10T11:53:43.127Z,9.00
2023-01-10T11:56:14.236Z,9.00
2023-01-10T11:58:43.907Z,9.00
2023-01-10T12:01:35.189Z,9.10
2023-01-10T12:04:02.906Z,9.10
2023-01-10T12:06:30.729Z,9.20
2023-01-10T12:08:58.270Z,9.20
2023-01-10T12:11:28.390Z,9.40
2023-01-10T12:14:01.472Z,9.30
2023-01-10T12:16:31.602Z,9.40
2023-01-10T12:19:07.371Z,9.40
2023-01-10T12:21:39.957Z,9.50
2023-01-10T12:24:24.547Z,9.50
2023-01-10T12:26:53.969Z,10.50
2023-01-10T12:29:26.766Z,11.10
2023-01-10T12:31:56.944Z,9.70
2023-01-10T12:34:41.854Z,9.80
2023-01-10T12:37:32.791Z,10.50
2023-01-10T12:40:05.770Z,9.90
2023-01-10T12:43:21.453Z,10.00
2023-01-10T12:46:02.760Z,10.10
2023-01-10T12:48:50.763Z,10.20
2023-01-10T12:51:24.474Z,10.30
2023-01-10T12:54:06.748Z,10.40
2023-01-10T12:56:34.466Z,10.40
2023-01-10T12:59:07.627Z,10.50
2023-01-10T13:01:40.596Z,10.60
2023-01-10T13:04:15.633Z,10.60
2023-01-10T13:06:44.243Z,10.60
2023-01-10T13:09:26.021Z,10.80
2023-01-10T13:12:07.347Z,10.90
2023-01-10T13:14:58.146Z,11.50
2023-01-10T13:17:31.675Z,11.10
2023-01-10T13:20:23.643Z,11.20
2023-01-10T13:22:56.354Z,11.20
2023-01-10T13:25:27.040Z,11.30
2023-01-10T13:28:29.798Z,11.30
2023-01-10T13:31:02.197Z,11.30
2023-01-10T13:33:57.876Z,11.40
2023-01-10T13:36:52.784Z,11.40
2023-01-10T13:39:36.770Z,11.60
2023-01-10T13:42:22.584Z,11.60
2023-01-10T13:45:04.762Z,11.60
2023-01-10T13:47:45.467Z,11.70
2023-01-10T13:50:36.357Z,11.70
2023-01-10T13:53:04.324Z,11.70
2023-01-10T13:55:39.085Z,11.70
2023-01-10T13:58:15.627Z,11.80
2023-01-10T14:01:11.699Z,11.80
2023-01-10T14:03:55.332Z,11.80
2023-01-10T14:06:40.912Z,11.90
2023-01-10T14:09:14.413Z,11.90
2023-01-10T14:11:44.845Z,11.90
2023-01-10T14:14:26.813Z,12.00
2023-01-10T14:16:57.764Z,12.00
2023-01-10T14:19:32.542Z,12.10
2023-01-10T14:22:02.137Z,12.10
2023-01-10T14:24:40.013Z,12.10
2023-01-10T14:27:14.441Z,12.10
2023-01-10T14:29:49.973Z,12.10
2023-01-10T14:32:43.910Z,12.10
2023-01-10T14:35:19.316Z,12.20
2023-01-10T14:37:56.148Z,12.20
2023-01-10T14:40:34.872Z,12.20
2023-01-10T14:43:06.299Z,12.20
2023-01-10T14:46:01.782Z,12.20
2023-01-10T14:48:31.093Z,12.20
2023-01-10T14:51:17.573Z,12.20
2023-01-10T14:53:45.266Z,12.30
2023-01-10T14:56:38.854Z,12.20
2023-01-10T14:59:18.642Z,12.20
2023-01-10T15:01:54.280Z,12.20
2023-01-10T15:04:23.889Z,12.40
2023-01-10T15:06:55.863Z,12.10
2023-01-10T15:09:24.594Z,12.10
2023-01-10T15:11:53.767Z,12.10
2023-01-10T15:14:25.045Z,12.10
2023-01-10T15:16:55.334Z,12.00
2023-01-10T15:19:24.218Z,12.00
2023-01-10T15:21:54.581Z,12.30
2023-01-10T15:24:35.877Z,12.00
2023-01-10T15:27:06.219Z,12.40
2023-01-10T15:29:34.304Z,11.90
2023-01-10T15:32:19.472Z,11.90
2023-01-10T15:34:50.069Z,11.90
2023-01-10T15:37:27.273Z,11.90
2023-01-10T15:39:55.614Z,11.90
2023-01-10T15:42:23.508Z,11.80
2023-01-10T15:44:55.692Z,11.80
2023-01-10T15:47:51.125Z,11.80
2023-01-10T15:50:29.373Z,11.70
2023-01-10T15:53:02.371Z,11.80
2023-01-10T15:55:53.400Z,11.80
2023-01-10T15:58:35.784Z,11.80
2023-01-10T16:01:06.745Z,11.80
2023-01-10T16:03:39.962Z,11.80
2023-01-10T16:06:09.885Z,11.80
2023-01-10T16:08:38.957Z,11.80
2023-01-10T16:11:41.198Z,11.70
2023-01-10T16:14:09.364Z,11.80
2023-01-10T16:16:39.419Z,11.80
2023-01-10T16:19:06.897Z,11.70
2023-01-10T16:21:39.768Z,11.90
2023-01-10T16:24:13.159Z,11.80
2023-01-10T16:26:40.660Z,11.70
2023-01-10T16:29:09.248Z,11.80
2023-01-10T16:31:36.784Z,11.70
2023-01-10T16:34:04.467Z,11.70
2023-01-10T16:36:31.869Z,11.80
2023-01-10T16:39:04.138Z,11.80
2023-01-10T16:41:50.033Z,11.80
2023-01-10T16:44:19.175Z,11.80
2023-01-10T16:46:47.441Z,11.80
2023-01-10T16:49:15.732Z,11.80
2023-01-10T16:51:43.034Z,11.70
2023-01-10T16:54:15.076Z,11.70
2023-01-10T16:56:45.112Z,11.70
2023-01-10T16:59:14.222Z,11.70
2023-01-10T17:01:53.350Z,11.80
2023-01-10T17:04:27.982Z,11.60
2023-01-10T17:06:56.725Z,11.70
2023-01-10T17:09:26.588Z,11.70
2023-01-10T17:12:02.097Z,11.70
2023-01-10T17:14:37.280Z,11.70
2023-01-10T17:17:05.323Z,11.70
2023-01-10T17:19:32.877Z,11.70
2023-01-10T17:22:00.508Z,11.80
2023-01-10T17:24:29.690Z,11.70
2023-01-10T17:26:57.353Z,11.70
2023-01-10T17:29:25.146Z,11.70
2023-01-10T17:31:52.582Z,11.70
2023-01-10T17:34:20.124Z,11.70
2023-01-10T17:36:47.608Z,11.70
2023-01-10T17:39:15.222Z,11.70
2023-01-10T17:41:42.772Z,11.70
2023-01-10T17:44:10.284Z,11.70
2023-01-10T17:46:39.779Z,11.70
2023-01-10T17:49:07.347Z,11.70
2023-01-10T17:51:34.833Z,11.70
2023-01-10T17:54:02.249Z,11.80
2023-01-10T17:56:29.971Z,11.80
2023-01-10T17:58:57.392Z,11.70
2023-01-10T18:01:26.042Z,11.70
2023-01-10T18:03:54.119Z,11.80
2023-01-10T18:06:25.506Z,11.70
2023-01-10T18:08:53.991Z,11.70
2023-01-10T18:11:22.928Z,11.70
2023-01-10T18:13:50.677Z,11.70
2023-01-10T18:16:18.155Z,11.70
2023-01-10T18:18:45.579Z,11.80
2023-01-10T18:21:15.152Z,11.70
2023-01-10T18:23:42.682Z,11.70
2023-01-10T18:26:11.955Z,11.70
2023-01-10T18:28:42.869Z,11.70
2023-01-10T18:31:16.735Z,11.70
2023-01-10T18:33:48.222Z,11.70
2023-01-10T18:36:18.356Z,11.70
2023-01-10T18:38:46.514Z,11.70
2023-01-10T18:41:14.465Z,11.70
2023-01-10T18:43:41.825Z,11.70
2023-01-10T18:46:20.317Z,11.70
2023-01-10T18:48:50.050Z,11.70
2023-01-10T18:51:19.002Z,11.70
2023-01-10T18:53:47.708Z,11.70
2023-01-10T18:56:16.076Z,11.70
2023-01-10T18:58:43.927Z,11.70
2023-01-10T19:01:14.602Z,11.80
2023-01-10T19:03:43.056Z,11.70
2023-01-10T19:06:15.761Z,11.70
2023-01-10T19:08:44.209Z,12.30
2023-01-10T19:11:15.211Z,11.70
2023-01-10T19:13:44.707Z,11.70
2023-01-10T19:16:19.212Z,11.90
2023-01-10T19:18:52.511Z,11.70
2023-01-10T19:21:20.455Z,11.70
2023-01-10T19:23:49.938Z,11.70
2023-01-10T19:26:17.448Z,11.70
2023-01-10T19:28:45.457Z,11.70
2023-01-10T19:31:17.956Z,11.70
2023-01-10T19:33:47.551Z,11.70
2023-01-10T19:36:16.407Z,11.70
2023-01-10T19:38:44.174Z,11.70
2023-01-10T19:41:14.091Z,11.70
2023-01-10T19:43:41.630Z,11.80
2023-01-10T19:46:11.032Z,11.80
2023-01-10T19:48:39.686Z,11.80
2023-01-10T19:51:12.289Z,12.10
2023-01-10T19:53:46.038Z,11.80
2023-01-10T19:56:19.603Z,11.90
2023-01-10T19:58:47.835Z,11.80
2023-01-10T20:01:17.003Z,11.90
2023-01-10T20:03:46.632Z,11.80
2023-01-10T20:06:20.681Z,11.80
2023-01-10T20:08:49.265Z,11.80
2023-01-10T20:11:19.091Z,11.80
2023-01-10T20:13:48.290Z,11.80
2023-01-10T20:16:18.712Z,11.70
2023-01-10T20:18:46.562Z,11.80
2023-01-10T20:21:17.085Z,11.70
2023-01-10T20:23:45.394Z,11.70
2023-01-10T20:26:13.056Z,11.70
2023-01-10T20:28:41.588Z,11.70
2023-01-10T20:31:13.419Z,11.80
2023-01-10T20:33:40.902Z,11.80
2023-01-10T20:36:12.390Z,11.70
2023-01-10T20:38:40.384Z,11.70
2023-01-10T20:41:13.915Z,11.80
2023-01-10T20:43:41.925Z,11.80
2023-01-10T20:46:15.992Z,11.70
2023-01-10T20:48:44.654Z,11.80
2023-01-10T20:51:15.935Z,11.80
2023-01-10T20:53:44.293Z,11.70
2023-01-10T20:56:17.313Z,11.70
2023-01-10T20:58:44.950Z,11.80
2023-01-10T21:01:25.096Z,11.80
2023-01-10T21:04:00.470Z,11.80
2023-01-10T21:06:28.016Z,11.80
2023-01-10T21:08:55.506Z,11.80
2023-01-10T21:11:22.967Z,11.80
2023-01-10T21:13:50.383Z,11.80
2023-01-10T21:16:20.848Z,11.80
2023-01-10T21:18:48.663Z,11.80
2023-01-10T21:21:18.508Z,11.70
2023-01-10T21:23:45.962Z,11.70
2023-01-10T21:26:14.843Z,11.80
2023-01-10T21:28:47.909Z,11.80
2023-01-10T21:31:17.673Z,11.80
2023-01-10T21:33:45.340Z,11.80
2023-01-10T21:36:13.728Z,11.80
2023-01-10T21:38:41.612Z,11.80
2023-01-10T21:41:13.099Z,11.90
2023-01-10T21:43:44.369Z,11.90
2023-01-10T21:46:12.922Z,11.90
2023-01-10T21:48:40.408Z,11.80
2023-01-10T21:51:07.962Z,11.90
2023-01-10T21:53:35.388Z,11.90
2023-01-10T21:56:02.827Z,12.00
2023-01-10T21:58:30.434Z,11.90
2023-01-10T22:00:59.169Z,11.90
2023-01-10T22:03:26.888Z,11.80
2023-01-10T22:05:54.523Z,11.90
2023-01-10T22:08:22.189Z,11.90
2023-01-10T22:10:49.681Z,11.90
2023-01-10T22:13:17.089Z,11.90
2023-01-10T22:15:44.718Z,11.90
2023-01-10T22:18:12.191Z,11.90
2023-01-10T22:20:44.586Z,11.90
2023-01-10T22:23:12.041Z,11.90
2023-01-10T22:25:39.459Z,11.90
2023-01-10T22:28:06.987Z,12.00
2023-01-10T22:30:35.441Z,11.90
2023-01-10T22:33:03.113Z,11.90
2023-01-10T22:35:30.652Z,11.90
2023-01-10T22:37:58.267Z,11.90
2023-01-10T22:40:25.653Z,11.90
2023-01-10T22:42:53.721Z,11.90
2023-01-10T22:45:21.257Z,11.90
2023-01-10T22:47:49.837Z,11.90
2023-01-10T22:50:18.350Z,12.80
2023-01-10T22:52:49.991Z,11.80
2023-01-10T22:55:18.513Z,11.80
2023-01-10T22:57:47.694Z,11.80
2023-01-10T23:00:16.580Z,11.80
2023-01-10T23:02:44.119Z,11.80
2023-01-10T23:05:11.605Z,11.80
2023-01-10T23:07:39.024Z,11.80
2023-01-10T23:10:17.282Z,11.80
2023-01-10T23:12:51.958Z,11.70
2023-01-10T23:15:19.472Z,11.60
2023-01-10T23:17:46.965Z,11.60
2023-01-10T23:20:14.400Z,11.50
2023-01-10T23:22:41.825Z,11.40
2023-01-10T23:25:09.563Z,11.40
2023-01-10T23:27:38.599Z,11.10
2023-01-10T23:30:08.227Z,11.00
2023-01-10T23:32:36.146Z,10.80
2023-01-10T23:35:04.025Z,10.70
2023-01-10T23:37:31.590Z,10.70
2023-01-10T23:39:59.011Z,10.50
2023-01-10T23:42:26.436Z,10.50
2023-01-10T23:44:54.043Z,10.40
2023-01-10T23:47:21.438Z,10.20
2023-01-10T23:49:48.876Z,10.90
2023-01-10T23:52:16.830Z,10.20
2023-01-10T23:54:44.294Z,10.10
2023-01-10T23:57:11.753Z,10.10
2023-01-10T23:59:39.524Z,10.10
